UZ-0042 weather

Shirabad Northeast Airport
Shirabad, Surxondaryo, Uzbekistan

Public forecast

Using degrees Celsius for public forecast. Weather courtesy of forecast.io.

Closest aviation weather report (METAR) to Shirabad Northeast Airport

Closest report is Termez Airport, 27.2 nm (50.4 km) SSE. Retrieved 2019/11/16 20:30 UTC (10 minutes ago):

UTST 162030Z 06002KT 7000 NSC 06/M01 Q1029 R88/CLRD70 NOSIG

Closest aviation forecast (TAF) to Shirabad Northeast Airport

Closest forecast is Termez Airport, 27.2 nm (50.4 km) SSE. Retrieved 2019/11/16 18:09 UTC (3 hours ago):

TAF UTST 161700Z 1618/1718 VRB06KT 6000 SCT050CB SCT100 TEMPO 1618/1704 24006G16KT 2000 BR FU